sensor_id;sensor_type;location;lat;lon;timestamp;pressure;altitude;pressure_sealevel;temperature;humidity
8366;BME280;4220;42.502;24.188;2023-06-10T00:02:12;94832.63;;;16.41;100.00
8366;BME280;4220;42.502;24.188;2023-06-10T00:04:39;94840.47;;;16.53;100.00
8366;BME280;4220;42.502;24.188;2023-06-10T00:07:07;94838.31;;;16.55;100.00
8366;BME280;4220;42.502;24.188;2023-06-10T00:09:34;94838.06;;;16.61;100.00
8366;BME280;4220;42.502;24.188;2023-06-10T00:12:02;94827.63;;;16.65;100.00
8366;BME280;4220;42.502;24.188;2023-06-10T00:14:29;94829.81;;;16.78;100.00
8366;BME280;4220;42.502;24.188;2023-06-10T00:16:56;94843.97;;;16.78;100.00
8366;BME280;4220;42.502;24.188;2023-06-10T00:19:23;94831.41;;;16.84;100.00
8366;BME280;4220;42.502;24.188;2023-06-10T00:21:51;94836.25;;;16.92;100.00
8366;BME280;4220;42.502;24.188;2023-06-10T00:24:20;94839.75;;;16.97;100.00
8366;BME280;4220;42.502;24.188;2023-06-10T00:26:47;94828.75;;;16.99;100.00
8366;BME280;4220;42.502;24.188;2023-06-10T00:29:14;94768.19;;;16.68;100.00
8366;BME280;4220;42.502;24.188;2023-06-10T00:31:41;94825.53;;;17.07;100.00
8366;BME280;4220;42.502;24.188;2023-06-10T00:34:09;94829.56;;;16.99;100.00
8366;BME280;4220;42.502;24.188;2023-06-10T00:36:36;94834.63;;;16.91;100.00
8366;BME280;4220;42.502;24.188;2023-06-10T00:39:03;94829.25;;;16.86;100.00
8366;BME280;4220;42.502;24.188;2023-06-10T00:41:32;94832.09;;;16.44;100.00
8366;BME280;4220;42.502;24.188;2023-06-10T00:43:59;94829.38;;;16.29;100.00
8366;BME280;4220;42.502;24.188;2023-06-10T00:46:26;94826.91;;;16.17;100.00
8366;BME280;4220;42.502;24.188;2023-06-10T00:48:53;94805.78;;;16.16;100.00
8366;BME280;4220;42.502;24.188;2023-06-10T00:51:20;94806.09;;;16.29;100.00
8366;BME280;4220;42.502;24.188;2023-06-10T00:53:48;94814.91;;;16.25;100.00
8366;BME280;4220;42.502;24.188;2023-06-10T00:56:16;94813.31;;;16.24;100.00
8366;BME280;4220;42.502;24.188;2023-06-10T00:58:44;94812.53;;;16.28;100.00
8366;BME280;4220;42.502;24.188;2023-06-10T01:01:11;94804.50;;;16.28;100.00
8366;BME280;4220;42.502;24.188;2023-06-10T01:03:39;94810.41;;;16.41;100.00
8366;BME280;4220;42.502;24.188;2023-06-10T01:06:14;94813.66;;;16.48;100.00
8366;BME280;4220;42.502;24.188;2023-06-10T01:08:50;94814.44;;;16.48;100.00
8366;BME280;4220;42.502;24.188;2023-06-10T01:11:21;94824.00;;;16.29;100.00
8366;BME280;4220;42.502;24.188;2023-06-10T01:13:53;94814.59;;;16.11;100.00
8366;BME280;4220;42.502;24.188;2023-06-10T01:16:22;94817.03;;;16.18;100.00
8366;BME280;4220;42.502;24.188;2023-06-10T01:18:50;94815.19;;;16.23;100.00
8366;BME280;4220;42.502;24.188;2023-06-10T01:21:21;94812.28;;;16.35;100.00
8366;BME280;4220;42.502;24.188;2023-06-10T01:23:50;94814.13;;;16.34;100.00
8366;BME280;4220;42.502;24.188;2023-06-10T01:26:20;94813.56;;;16.27;100.00
8366;BME280;4220;42.502;24.188;2023-06-10T01:28:53;94781.97;;;16.19;100.00
8366;BME280;4220;42.502;24.188;2023-06-10T01:31:31;94812.50;;;16.18;100.00
8366;BME280;4220;42.502;24.188;2023-06-10T01:34:03;94812.53;;;16.28;100.00
8366;BME280;4220;42.502;24.188;2023-06-10T01:36:34;94815.75;;;16.30;100.00
8366;BME280;4220;42.502;24.188;2023-06-10T01:39:04;94813.09;;;16.46;100.00
8366;BME280;4220;42.502;24.188;2023-06-10T01:41:31;94813.94;;;16.61;100.00
8366;BME280;4220;42.502;24.188;2023-06-10T01:43:59;94807.81;;;16.76;100.00
8366;BME280;4220;42.502;24.188;2023-06-10T01:46:26;94811.84;;;16.83;100.00
8366;BME280;4220;42.502;24.188;2023-06-10T01:48:52;94803.81;;;16.93;100.00
8366;BME280;4220;42.502;24.188;2023-06-10T01:51:19;94800.63;;;16.96;100.00
8366;BME280;4220;42.502;24.188;2023-06-10T01:53:47;94806.25;;;17.05;100.00
8366;BME280;4220;42.502;24.188;2023-06-10T01:56:14;94809.19;;;17.09;100.00
8366;BME280;4220;42.502;24.188;2023-06-10T01:58:44;94790.44;;;16.98;100.00
8366;BME280;4220;42.502;24.188;2023-06-10T02:01:11;94807.59;;;17.03;100.00
8366;BME280;4220;42.502;24.188;2023-06-10T02:03:38;94808.94;;;17.00;100.00
8366;BME280;4220;42.502;24.188;2023-06-10T02:06:05;94804.63;;;16.89;100.00
8366;BME280;4220;42.502;24.188;2023-06-10T02:08:32;94806.78;;;16.92;100.00
8366;BME280;4220;42.502;24.188;2023-06-10T02:11:00;94690.47;;;16.22;100.00
8366;BME280;4220;42.502;24.188;2023-06-10T02:13:27;94810.53;;;17.01;100.00
8366;BME280;4220;42.502;24.188;2023-06-10T02:15:54;94816.69;;;17.02;100.00
8366;BME280;4220;42.502;24.188;2023-06-10T02:18:21;94737.13;;;16.62;100.00
8366;BME280;4220;42.502;24.188;2023-06-10T02:20:48;94803.81;;;17.09;100.00
8366;BME280;4220;42.502;24.188;2023-06-10T02:23:15;94799.53;;;17.08;100.00
8366;BME280;4220;42.502;24.188;2023-06-10T02:25:42;94783.72;;;17.01;100.00
8366;BME280;4220;42.502;24.188;2023-06-10T02:28:10;94803.81;;;17.14;100.00
8366;BME280;4220;42.502;24.188;2023-06-10T02:30:39;94759.09;;;16.89;100.00
8366;BME280;4220;42.502;24.188;2023-06-10T02:33:06;94784.00;;;16.99;100.00
8366;BME280;4220;42.502;24.188;2023-06-10T02:35:35;94793.09;;;16.98;100.00
8366;BME280;4220;42.502;24.188;2023-06-10T02:38:02;94746.22;;;16.71;100.00
8366;BME280;4220;42.502;24.188;2023-06-10T02:40:29;94803.81;;;17.09;100.00
8366;BME280;4220;42.502;24.188;2023-06-10T02:42:56;94788.56;;;17.04;100.00
8366;BME280;4220;42.502;24.188;2023-06-10T02:45:25;94787.50;;;17.05;100.00
8366;BME280;4220;42.502;24.188;2023-06-10T02:47:52;94791.78;;;17.11;100.00
8366;BME280;4220;42.502;24.188;2023-06-10T02:50:19;94787.75;;;17.09;100.00
8366;BME280;4220;42.502;24.188;2023-06-10T02:52:46;94791.47;;;17.13;100.00
8366;BME280;4220;42.502;24.188;2023-06-10T02:55:13;94789.38;;;17.15;100.00
8366;BME280;4220;42.502;24.188;2023-06-10T02:57:40;94796.59;;;17.19;100.00
8366;BME280;4220;42.502;24.188;2023-06-10T03:00:08;94798.47;;;17.24;100.00
8366;BME280;4220;42.502;24.188;2023-06-10T03:02:38;94799.28;;;17.14;100.00
8366;BME280;4220;42.502;24.188;2023-06-10T03:05:05;94796.84;;;17.13;100.00
8366;BME280;4220;42.502;24.188;2023-06-10T03:07:35;94788.03;;;17.07;100.00
8366;BME280;4220;42.502;24.188;2023-06-10T03:10:03;94783.19;;;17.14;100.00
8366;BME280;4220;42.502;24.188;2023-06-10T03:12:30;94792.81;;;17.20;100.00
8366;BME280;4220;42.502;24.188;2023-06-10T03:15:00;94794.97;;;17.18;100.00
8366;BME280;4220;42.502;24.188;2023-06-10T03:17:29;94797.66;;;17.23;100.00
8366;BME280;4220;42.502;24.188;2023-06-10T03:19:57;94796.59;;;17.29;100.00
8366;BME280;4220;42.502;24.188;2023-06-10T03:22:24;94796.31;;;17.31;100.00
8366;BME280;4220;42.502;24.188;2023-06-10T03:24:51;94794.97;;;17.28;100.00
8366;BME280;4220;42.502;24.188;2023-06-10T03:27:18;94794.97;;;17.23;100.00
8366;BME280;4220;42.502;24.188;2023-06-10T03:29:45;94796.84;;;17.23;100.00
8366;BME280;4220;42.502;24.188;2023-06-10T03:32:12;94777.84;;;17.14;100.00
8366;BME280;4220;42.502;24.188;2023-06-10T03:34:40;94762.81;;;17.03;100.00
8366;BME280;4220;42.502;24.188;2023-06-10T03:37:08;94790.13;;;17.35;100.00
8366;BME280;4220;42.502;24.188;2023-06-10T03:39:35;94794.69;;;17.40;100.00
8366;BME280;4220;42.502;24.188;2023-06-10T03:42:02;94796.81;;;17.48;100.00
8366;BME280;4220;42.502;24.188;2023-06-10T03:44:28;94796.03;;;17.52;100.00
8366;BME280;4220;42.502;24.188;2023-06-10T03:46:55;94799.25;;;17.54;100.00
8366;BME280;4220;42.502;24.188;2023-06-10T03:49:23;94796.00;;;17.47;100.00
8366;BME280;4220;42.502;24.188;2023-06-10T03:51:52;94797.38;;;17.35;100.00
8366;BME280;4220;42.502;24.188;2023-06-10T03:54:21;94804.06;;;17.42;100.00
8366;BME280;4220;42.502;24.188;2023-06-10T03:56:47;94810.50;;;17.41;100.00
8366;BME280;4220;42.502;24.188;2023-06-10T03:59:15;94804.06;;;17.47;100.00
8366;BME280;4220;42.502;24.188;2023-06-10T04:01:41;94811.03;;;17.48;100.00
8366;BME280;4220;42.502;24.188;2023-06-10T04:04:09;94805.41;;;17.45;100.00
8366;BME280;4220;42.502;24.188;2023-06-10T04:06:36;94813.97;;;17.47;100.00
8366;BME280;4220;42.502;24.188;2023-06-10T04:09:03;94800.59;;;17.42;100.00
8366;BME280;4220;42.502;24.188;2023-06-10T04:11:32;94815.31;;;17.54;100.00
8366;BME280;4220;42.502;24.188;2023-06-10T04:13:59;94794.41;;;17.51;100.00
8366;BME280;4220;42.502;24.188;2023-06-10T04:16:26;94807.84;;;17.56;100.00
8366;BME280;4220;42.502;24.188;2023-06-10T04:18:53;94794.94;;;17.48;100.00
8366;BME280;4220;42.502;24.188;2023-06-10T04:21:20;94821.75;;;17.43;100.00
8366;BME280;4220;42.502;24.188;2023-06-10T04:23:48;94819.06;;;17.48;100.00
8366;BME280;4220;42.502;24.188;2023-06-10T04:26:15;94827.94;;;17.49;100.00
8366;BME280;4220;42.502;24.188;2023-06-10T04:28:44;94818.03;;;17.44;100.00
8366;BME280;4220;42.502;24.188;2023-06-10T04:31:11;94817.75;;;17.16;100.00
8366;BME280;4220;42.502;24.188;2023-06-10T04:33:37;94832.50;;;17.23;100.00
8366;BME280;4220;42.502;24.188;2023-06-10T04:36:05;94836.78;;;17.34;100.00
8366;BME280;4220;42.502;24.188;2023-06-10T04:38:33;94801.13;;;17.24;100.00
8366;BME280;4220;42.502;24.188;2023-06-10T04:41:00;94831.69;;;17.58;100.00
8366;BME280;4220;42.502;24.188;2023-06-10T04:43:27;94836.22;;;17.73;100.00
8366;BME280;4220;42.502;24.188;2023-06-10T04:45:55;94841.03;;;17.81;100.00
8366;BME280;4220;42.502;24.188;2023-06-10T04:48:22;94835.69;;;17.71;100.00
8366;BME280;4220;42.502;24.188;2023-06-10T04:50:50;94846.66;;;17.74;100.00
8366;BME280;4220;42.502;24.188;2023-06-10T04:53:17;94846.13;;;17.82;100.00
8366;BME280;4220;42.502;24.188;2023-06-10T04:55:43;94847.47;;;17.75;100.00
8366;BME280;4220;42.502;24.188;2023-06-10T04:58:10;94851.25;;;17.79;100.00
8366;BME280;4220;42.502;24.188;2023-06-10T05:00:37;94856.28;;;17.95;100.00
8366;BME280;4220;42.502;24.188;2023-06-10T05:03:05;94805.09;;;17.67;100.00
8366;BME280;4220;42.502;24.188;2023-06-10T05:05:32;94845.81;;;17.89;100.00
8366;BME280;4220;42.502;24.188;2023-06-10T05:07:59;94853.31;;;17.97;100.00
8366;BME280;4220;42.502;24.188;2023-06-10T05:10:26;94853.31;;;18.02;100.00
8366;BME280;4220;42.502;24.188;2023-06-10T05:12:53;94836.00;;;17.64;100.00
8366;BME280;4220;42.502;24.188;2023-06-10T05:15:19;94852.31;;;17.42;100.00
8366;BME280;4220;42.502;24.188;2023-06-10T05:17:46;94853.41;;;17.26;100.00
8366;BME280;4220;42.502;24.188;2023-06-10T05:20:15;94846.69;;;17.19;100.00
8366;BME280;4220;42.502;24.188;2023-06-10T05:22:42;94853.66;;;17.35;100.00
8366;BME280;4220;42.502;24.188;2023-06-10T05:25:10;94854.50;;;17.55;100.00
8366;BME280;4220;42.502;24.188;2023-06-10T05:27:36;94851.50;;;17.77;100.00
8366;BME280;4220;42.502;24.188;2023-06-10T05:30:05;94855.19;;;17.96;100.00
8366;BME280;4220;42.502;24.188;2023-06-10T05:32:33;94852.47;;;18.16;100.00
8366;BME280;4220;42.502;24.188;2023-06-10T05:34:59;94843.78;;;18.40;100.00
8366;BME280;4220;42.502;24.188;2023-06-10T05:37:28;94840.81;;;18.51;100.00
8366;BME280;4220;42.502;24.188;2023-06-10T05:39:55;94853.84;;;18.73;100.00
8366;BME280;4220;42.502;24.188;2023-06-10T05:42:21;94854.00;;;18.91;100.00
8366;BME280;4220;42.502;24.188;2023-06-10T05:44:48;94855.75;;;19.11;100.00
8366;BME280;4220;42.502;24.188;2023-06-10T05:47:15;94852.78;;;19.13;100.00
8366;BME280;4220;42.502;24.188;2023-06-10T05:49:42;94854.47;;;19.04;100.00
8366;BME280;4220;42.502;24.188;2023-06-10T05:52:11;94862.25;;;19.05;100.00
8366;BME280;4220;42.502;24.188;2023-06-10T05:54:39;94860.09;;;19.02;100.00
8366;BME280;4220;42.502;24.188;2023-06-10T05:57:06;94844.75;;;19.08;100.00
8366;BME280;4220;42.502;24.188;2023-06-10T05:59:33;94859.03;;;19.42;100.00
8366;BME280;4220;42.502;24.188;2023-06-10T06:02:00;94858.09;;;19.56;100.00
8366;BME280;4220;42.502;24.188;2023-06-10T06:04:26;94854.25;;;19.68;100.00
8366;BME280;4220;42.502;24.188;2023-06-10T06:06:53;94860.47;;;19.92;100.00
8366;BME280;4220;42.502;24.188;2023-06-10T06:09:20;94868.84;;;20.14;100.00
8366;BME280;4220;42.502;24.188;2023-06-10T06:11:48;94867.50;;;20.40;100.00
8366;BME280;4220;42.502;24.188;2023-06-10T06:14:15;94865.22;;;20.71;100.00
8366;BME280;4220;42.502;24.188;2023-06-10T06:16:42;94865.47;;;20.93;100.00
8366;BME280;4220;42.502;24.188;2023-06-10T06:19:09;94863.88;;;21.11;100.00
8366;BME280;4220;42.502;24.188;2023-06-10T06:21:36;94858.03;;;21.22;100.00
8366;BME280;4220;42.502;24.188;2023-06-10T06:24:03;94857.22;;;21.40;100.00
8366;BME280;4220;42.502;24.188;2023-06-10T06:26:30;94849.38;;;21.58;100.00
8366;BME280;4220;42.502;24.188;2023-06-10T06:28:58;94855.53;;;21.77;100.00
8366;BME280;4220;42.502;24.188;2023-06-10T06:31:25;94831.16;;;21.82;100.00
8366;BME280;4220;42.502;24.188;2023-06-10T06:33:52;94849.09;;;22.05;100.00
8366;BME280;4220;42.502;24.188;2023-06-10T06:36:19;94843.00;;;22.13;100.00
8366;BME280;4220;42.502;24.188;2023-06-10T06:38:46;94851.53;;;22.20;100.00
8366;BME280;4220;42.502;24.188;2023-06-10T06:41:12;94852.22;;;22.26;100.00
8366;BME280;4220;42.502;24.188;2023-06-10T06:43:39;94851.13;;;22.27;100.00
8366;BME280;4220;42.502;24.188;2023-06-10T06:46:09;94849.41;;;22.17;100.00
8366;BME280;4220;42.502;24.188;2023-06-10T06:48:36;94848.28;;;22.04;100.00
8366;BME280;4220;42.502;24.188;2023-06-10T06:51:02;94844.28;;;22.02;100.00
8366;BME280;4220;42.502;24.188;2023-06-10T06:53:29;94840.00;;;22.01;100.00
8366;BME280;4220;42.502;24.188;2023-06-10T06:55:56;94854.28;;;21.88;100.00
8366;BME280;4220;42.502;24.188;2023-06-10T06:58:23;94845.25;;;21.79;100.00
8366;BME280;4220;42.502;24.188;2023-06-10T07:00:50;94830.22;;;21.73;100.00
8366;BME280;4220;42.502;24.188;2023-06-10T07:03:18;94836.41;;;21.73;100.00
8366;BME280;4220;42.502;24.188;2023-06-10T07:05:45;94831.91;;;21.69;100.00
8366;BME280;4220;42.502;24.188;2023-06-10T07:08:11;94840.22;;;21.72;100.00
8366;BME280;4220;42.502;24.188;2023-06-10T07:10:38;94833.59;;;21.65;100.00
8366;BME280;4220;42.502;24.188;2023-06-10T07:13:05;94843.34;;;21.79;100.00
8366;BME280;4220;42.502;24.188;2023-06-10T07:15:32;94837.00;;;21.57;100.00
8366;BME280;4220;42.502;24.188;2023-06-10T07:17:59;94835.94;;;21.39;100.00
8366;BME280;4220;42.502;24.188;2023-06-10T07:20:27;94845.22;;;21.14;100.00
8366;BME280;4220;42.502;24.188;2023-06-10T07:22:54;94836.59;;;20.75;100.00
8366;BME280;4220;42.502;24.188;2023-06-10T07:25:21;94843.88;;;20.56;100.00
8366;BME280;4220;42.502;24.188;2023-06-10T07:27:48;94842.53;;;20.53;100.00
8366;BME280;4220;42.502;24.188;2023-06-10T07:30:15;94806.75;;;20.29;100.00
8366;BME280;4220;42.502;24.188;2023-06-10T07:32:42;94844.94;;;20.55;100.00
8366;BME280;4220;42.502;24.188;2023-06-10T07:35:09;94828.78;;;20.55;100.00
8366;BME280;4220;42.502;24.188;2023-06-10T07:37:38;94841.91;;;20.61;100.00
8366;BME280;4220;42.502;24.188;2023-06-10T07:40:08;94853.53;;;20.57;100.00
8366;BME280;4220;42.502;24.188;2023-06-10T07:42:35;94847.56;;;20.60;100.00
8366;BME280;4220;42.502;24.188;2023-06-10T07:45:03;94839.50;;;20.60;100.00
8366;BME280;4220;42.502;24.188;2023-06-10T07:47:30;94855.59;;;20.65;100.00
8366;BME280;4220;42.502;24.188;2023-06-10T07:49:57;94836.34;;;20.71;100.00
8366;BME280;4220;42.502;24.188;2023-06-10T07:52:24;94850.22;;;20.83;100.00
8366;BME280;4220;42.502;24.188;2023-06-10T07:54:52;94838.13;;;20.81;100.00
8366;BME280;4220;42.502;24.188;2023-06-10T07:57:19;94843.28;;;20.96;100.00
8366;BME280;4220;42.502;24.188;2023-06-10T07:59:46;94837.44;;;21.13;100.00
8366;BME280;4220;42.502;24.188;2023-06-10T08:02:14;94848.03;;;21.41;100.00
8366;BME280;4220;42.502;24.188;2023-06-10T08:04:41;94828.97;;;21.52;100.00
8366;BME280;4220;42.502;24.188;2023-06-10T08:07:08;94845.50;;;21.64;100.00
8366;BME280;4220;42.502;24.188;2023-06-10T08:09:34;94840.44;;;21.76;100.00
8366;BME280;4220;42.502;24.188;2023-06-10T08:12:03;94847.97;;;21.92;100.00
8366;BME280;4220;42.502;24.188;2023-06-10T08:14:31;94852.59;;;22.19;100.00
8366;BME280;4220;42.502;24.188;2023-06-10T08:16:57;94852.63;;;22.33;100.00
8366;BME280;4220;42.502;24.188;2023-06-10T08:19:24;94822.69;;;22.29;100.00
8366;BME280;4220;42.502;24.188;2023-06-10T08:21:51;94848.94;;;22.69;100.00
8366;BME280;4220;42.502;24.188;2023-06-10T08:24:18;94858.31;;;22.86;100.00
8366;BME280;4220;42.502;24.188;2023-06-10T08:26:45;94860.41;;;22.89;100.00
8366;BME280;4220;42.502;24.188;2023-06-10T08:29:13;94852.91;;;22.86;100.00
8366;BME280;4220;42.502;24.188;2023-06-10T08:31:41;94855.91;;;22.43;100.00
8366;BME280;4220;42.502;24.188;2023-06-10T08:34:08;94856.81;;;22.39;100.00
8366;BME280;4220;42.502;24.188;2023-06-10T08:36:36;94857.31;;;22.27;100.00
8366;BME280;4220;42.502;24.188;2023-06-10T08:39:02;94860.13;;;22.22;100.00
8366;BME280;4220;42.502;24.188;2023-06-10T08:41:35;94863.13;;;22.34;100.00
8366;BME280;4220;42.502;24.188;2023-06-10T08:44:08;94837.03;;;22.16;100.00
8366;BME280;4220;42.502;24.188;2023-06-10T08:46:38;94863.72;;;22.31;100.00
8366;BME280;4220;42.502;24.188;2023-06-10T08:49:09;94861.63;;;22.28;100.00
8366;BME280;4220;42.502;24.188;2023-06-10T08:51:37;94852.00;;;22.22;100.00
8366;BME280;4220;42.502;24.188;2023-06-10T08:54:09;94838.88;;;22.02;100.00
8366;BME280;4220;42.502;24.188;2023-06-10T08:56:39;94848.03;;;22.06;100.00
8366;BME280;4220;42.502;24.188;2023-06-10T08:59:07;94836.19;;;22.02;100.00
8366;BME280;4220;42.502;24.188;2023-06-10T09:01:35;94848.09;;;22.14;100.00
8366;BME280;4220;42.502;24.188;2023-06-10T09:04:04;94843.50;;;22.01;100.00
8366;BME280;4220;42.502;24.188;2023-06-10T09:06:32;94855.44;;;21.82;100.00
8366;BME280;4220;42.502;24.188;2023-06-10T09:08:59;94836.41;;;21.60;100.00
8366;BME280;4220;42.502;24.188;2023-06-10T09:11:26;94845.34;;;21.55;100.00
8366;BME280;4220;42.502;24.188;2023-06-10T09:13:53;94852.69;;;21.55;100.00
8366;BME280;4220;42.502;24.188;2023-06-10T09:16:20;94845.19;;;21.65;100.00
8366;BME280;4220;42.502;24.188;2023-06-10T09:18:46;94847.63;;;21.67;100.00
8366;BME280;4220;42.502;24.188;2023-06-10T09:21:15;94848.38;;;21.67;100.00
8366;BME280;4220;42.502;24.188;2023-06-10T09:23:42;94851.41;;;21.66;100.00
8366;BME280;4220;42.502;24.188;2023-06-10T09:26:09;94827.59;;;21.68;100.00
8366;BME280;4220;42.502;24.188;2023-06-10T09:28:37;94844.81;;;21.72;100.00
8366;BME280;4220;42.502;24.188;2023-06-10T09:31:06;94827.81;;;21.71;100.00
8366;BME280;4220;42.502;24.188;2023-06-10T09:33:37;94837.06;;;21.84;100.00
8366;BME280;4220;42.502;24.188;2023-06-10T09:36:04;94828.94;;;21.84;100.00
8366;BME280;4220;42.502;24.188;2023-06-10T09:38:35;94832.59;;;21.93;100.00
8366;BME280;4220;42.502;24.188;2023-06-10T09:41:03;94840.47;;;21.89;100.00
8366;BME280;4220;42.502;24.188;2023-06-10T09:43:39;94831.28;;;21.90;100.00
8366;BME280;4220;42.502;24.188;2023-06-10T09:46:07;94828.00;;;21.93;100.00
8366;BME280;4220;42.502;24.188;2023-06-10T09:48:40;94831.00;;;22.05;100.00
8366;BME280;4220;42.502;24.188;2023-06-10T09:51:09;94835.50;;;22.10;100.00
8366;BME280;4220;42.502;24.188;2023-06-10T09:53:38;94829.69;;;22.17;100.00
8366;BME280;4220;42.502;24.188;2023-06-10T09:56:05;94833.09;;;22.22;100.00
8366;BME280;4220;42.502;24.188;2023-06-10T09:58:36;94823.00;;;22.28;100.00
8366;BME280;4220;42.502;24.188;2023-06-10T10:01:06;94828.88;;;22.43;100.00
8366;BME280;4220;42.502;24.188;2023-06-10T10:03:33;94837.41;;;22.50;100.00
8366;BME280;4220;42.502;24.188;2023-06-10T10:06:00;94837.00;;;22.84;100.00
8366;BME280;4220;42.502;24.188;2023-06-10T10:08:27;94827.94;;;23.24;100.00
8366;BME280;4220;42.502;24.188;2023-06-10T10:10:57;94824.69;;;23.80;100.00
8366;BME280;4220;42.502;24.188;2023-06-10T10:13:25;94828.88;;;24.17;100.00
8366;BME280;4220;42.502;24.188;2023-06-10T10:15:54;94823.84;;;24.33;100.00
8366;BME280;4220;42.502;24.188;2023-06-10T10:18:24;94835.06;;;24.48;98.72
8366;BME280;4220;42.502;24.188;2023-06-10T10:21:01;94826.97;;;24.57;97.50
8366;BME280;4220;42.502;24.188;2023-06-10T10:23:35;94832.50;;;25.08;96.64
8366;BME280;4220;42.502;24.188;2023-06-10T10:26:10;94813.81;;;25.58;91.40
8366;BME280;4220;42.502;24.188;2023-06-10T10:28:41;94825.31;;;26.27;87.30
8366;BME280;4220;42.502;24.188;2023-06-10T10:31:12;94823.78;;;26.85;81.82
8366;BME280;4220;42.502;24.188;2023-06-10T10:33:49;94827.84;;;26.70;80.71
8366;BME280;4220;42.502;24.188;2023-06-10T10:36:18;94826.50;;;26.85;79.84
8366;BME280;4220;42.502;24.188;2023-06-10T10:38:47;94793.13;;;26.76;79.58
8366;BME280;4220;42.502;24.188;2023-06-10T10:41:16;94826.47;;;27.14;77.55
8366;BME280;4220;42.502;24.188;2023-06-10T10:43:44;94804.81;;;27.38;75.91
8366;BME280;4220;42.502;24.188;2023-06-10T10:46:14;94824.28;;;27.81;75.48
8366;BME280;4220;42.502;24.188;2023-06-10T10:48:41;94817.34;;;27.84;74.81
8366;BME280;4220;42.502;24.188;2023-06-10T10:51:10;94824.56;;;27.88;74.33
8366;BME280;4220;42.502;24.188;2023-06-10T10:53:37;94803.41;;;27.85;74.06
8366;BME280;4220;42.502;24.188;2023-06-10T10:56:05;94808.28;;;28.13;73.71
8366;BME280;4220;42.502;24.188;2023-06-10T10:58:34;94800.22;;;28.28;73.77
8366;BME280;4220;42.502;24.188;2023-06-10T11:01:10;94816.50;;;28.49;72.63
8366;BME280;4220;42.502;24.188;2023-06-10T11:03:42;94799.78;;;28.63;72.26
8366;BME280;4220;42.502;24.188;2023-06-10T11:06:13;94804.69;;;28.69;73.21
8366;BME280;4220;42.502;24.188;2023-06-10T11:08:47;94801.50;;;28.91;73.03
8366;BME280;4220;42.502;24.188;2023-06-10T11:11:20;94790.31;;;29.08;71.78
8366;BME280;4220;42.502;24.188;2023-06-10T11:14:07;94785.50;;;29.30;70.86
8366;BME280;4220;42.502;24.188;2023-06-10T11:16:39;94790.03;;;29.65;68.78
8366;BME280;4220;42.502;24.188;2023-06-10T11:19:08;94801.53;;;29.59;69.27
8366;BME280;4220;42.502;24.188;2023-06-10T11:21:58;94790.47;;;29.67;69.46
8366;BME280;4220;42.502;24.188;2023-06-10T11:24:26;94786.22;;;29.82;67.89
8366;BME280;4220;42.502;24.188;2023-06-10T11:26:52;94788.34;;;29.89;68.20
8366;BME280;4220;42.502;24.188;2023-06-10T11:29:21;94788.31;;;29.61;67.49
8366;BME280;4220;42.502;24.188;2023-06-10T11:31:51;94766.84;;;29.75;67.14
8366;BME280;4220;42.502;24.188;2023-06-10T11:34:24;94748.94;;;29.34;68.42
8366;BME280;4220;42.502;24.188;2023-06-10T11:36:52;94738.31;;;29.45;66.94
8366;BME280;4220;42.502;24.188;2023-06-10T11:39:20;94732.69;;;29.26;67.34
8366;BME280;4220;42.502;24.188;2023-06-10T11:41:50;94758.81;;;29.39;67.50
8366;BME280;4220;42.502;24.188;2023-06-10T11:44:17;94742.13;;;29.28;66.70
8366;BME280;4220;42.502;24.188;2023-06-10T11:46:47;94754.59;;;29.01;67.22
8366;BME280;4220;42.502;24.188;2023-06-10T11:49:15;94746.94;;;29.19;67.00
8366;BME280;4220;42.502;24.188;2023-06-10T11:51:41;94754.56;;;29.26;65.98
8366;BME280;4220;42.502;24.188;2023-06-10T11:54:14;94750.00;;;29.17;66.50
8366;BME280;4220;42.502;24.188;2023-06-10T11:56:42;94744.19;;;28.55;67.99
8366;BME280;4220;42.502;24.188;2023-06-10T11:59:09;94739.88;;;28.42;67.10
8366;BME280;4220;42.502;24.188;2023-06-10T12:01:37;94743.63;;;28.74;66.89
8366;BME280;4220;42.502;24.188;2023-06-10T12:04:08;94753.81;;;29.01;65.91
8366;BME280;4220;42.502;24.188;2023-06-10T12:06:41;94746.09;;;28.91;64.32
8366;BME280;4220;42.502;24.188;2023-06-10T12:09:17;94740.75;;;28.94;65.83
8366;BME280;4220;42.502;24.188;2023-06-10T12:11:45;94747.75;;;29.07;63.41
8366;BME280;4220;42.502;24.188;2023-06-10T12:14:13;94741.41;;;29.03;63.86
8366;BME280;4220;42.502;24.188;2023-06-10T12:16:40;94743.28;;;29.15;63.85
8366;BME280;4220;42.502;24.188;2023-06-10T12:19:15;94741.41;;;29.87;61.16
8366;BME280;4220;42.502;24.188;2023-06-10T12:21:44;94735.69;;;30.54;57.61
8366;BME280;4220;42.502;24.188;2023-06-10T12:24:11;94742.41;;;30.91;56.76
8366;BME280;4220;42.502;24.188;2023-06-10T12:26:40;94746.38;;;30.94;56.19
8366;BME280;4220;42.502;24.188;2023-06-10T12:29:28;94745.25;;;30.95;57.41
8366;BME280;4220;42.502;24.188;2023-06-10T12:32:00;94708.13;;;31.17;56.44
8366;BME280;4220;42.502;24.188;2023-06-10T12:34:36;94730.28;;;31.08;56.08
8366;BME280;4220;42.502;24.188;2023-06-10T12:37:10;94734.03;;;30.84;56.90
8366;BME280;4220;42.502;24.188;2023-06-10T12:39:39;94735.06;;;30.61;58.45
8366;BME280;4220;42.502;24.188;2023-06-10T12:42:07;94726.25;;;30.52;58.40
8366;BME280;4220;42.502;24.188;2023-06-10T12:44:38;94722.81;;;30.39;58.39
8366;BME280;4220;42.502;24.188;2023-06-10T12:47:09;94714.34;;;29.97;60.50
8366;BME280;4220;42.502;24.188;2023-06-10T12:49:39;94720.47;;;29.63;63.37
8366;BME280;4220;42.502;24.188;2023-06-10T12:52:06;94709.34;;;29.28;65.25
8366;BME280;4220;42.502;24.188;2023-06-10T12:54:34;94697.44;;;28.81;66.26
8366;BME280;4220;42.502;24.188;2023-06-10T12:57:01;94700.06;;;28.65;67.07
8366;BME280;4220;42.502;24.188;2023-06-10T12:59:28;94701.53;;;28.50;67.83
8366;BME280;4220;42.502;24.188;2023-06-10T13:01:57;94709.97;;;28.33;67.57
8366;BME280;4220;42.502;24.188;2023-06-10T13:04:23;94706.47;;;28.09;67.86
8366;BME280;4220;42.502;24.188;2023-06-10T13:06:52;94706.63;;;27.79;68.79
8366;BME280;4220;42.502;24.188;2023-06-10T13:09:19;94706.84;;;27.62;70.86